Time;durP1;ratioP1;P1;durP2;ratioP2;P2;SDS_P1;SDS_P2;PMS_P1;PMS_P2;Temp;Humidity;BMP_temperature;BMP_pressure;BME280_temperature;BME280_humidity;BME280_pressure;Samples;Min_cycle;Max_cycle;Signal;HPM_P1;HPM_P2
2022/04/21 00:00:40;;;;;;;5.73;4.53;;;;;;;8.71;74.11;99738.00;5054298;28;20567;-56
2022/04/21 00:03:07;;;;;;;4.80;4.30;;;;;;;8.73;73.83;99733.69;5054205;28;20193;-55
2022/04/21 00:05:32;;;;;;;4.80;4.40;;;;;;;8.73;74.11;99737.09;5051370;28;20188;-54
2022/04/21 00:07:59;;;;;;;5.60;5.03;;;;;;;8.79;74.12;99733.59;5050335;28;20710;-55
2022/04/21 00:10:25;;;;;;;4.83;4.33;;;;;;;8.85;74.40;99744.72;5055986;28;20228;-56
2022/04/21 00:12:51;;;;;;;6.47;4.20;;;;;;;8.82;74.32;99731.88;5060379;28;20190;-56
2022/04/21 00:15:18;;;;;;;5.40;4.70;;;;;;;8.80;74.26;99733.59;5052230;28;20264;-56
2022/04/21 00:17:44;;;;;;;6.07;5.47;;;;;;;8.73;74.41;99734.53;5050960;28;20220;-56
2022/04/21 00:20:11;;;;;;;5.30;4.43;;;;;;;8.69;74.92;99725.97;5054627;28;20196;-55
2022/04/21 00:25:20;;;;;;;6.23;4.90;;;;;;;8.77;74.89;99731.06;5055980;28;20333;-57
2022/04/21 00:27:46;;;;;;;5.43;4.90;;;;;;;8.74;75.40;99745.72;5058429;28;20377;-57
2022/04/21 00:30:15;;;;;;;5.77;5.00;;;;;;;8.79;75.34;99738.75;5059089;28;20277;-56
2022/04/21 00:32:41;;;;;;;5.17;4.67;;;;;;;8.80;75.57;99725.88;5058843;28;20188;-57
2022/04/21 00:35:11;;;;;;;5.83;4.90;;;;;;;8.78;75.68;99719.00;5055398;28;20186;-56
2022/04/21 00:37:51;;;;;;;5.37;4.20;;;;;;;8.75;75.63;99713.88;5050394;28;20401;-56
2022/04/21 00:40:18;;;;;;;6.33;4.70;;;;;;;8.73;75.86;99710.47;5052900;28;20608;-55
2022/04/21 00:42:44;;;;;;;6.23;4.77;;;;;;;8.73;75.92;99710.47;5056082;28;20192;-55
2022/04/21 00:45:11;;;;;;;7.93;5.13;;;;;;;8.74;75.85;99707.84;5052490;28;20192;-55
2022/04/21 00:47:46;;;;;;;5.10;4.60;;;;;;;8.70;75.93;99708.75;5050662;28;20214;-55
2022/04/21 00:50:19;;;;;;;6.17;4.83;;;;;;;8.71;76.33;99717.38;5048597;28;20687;-56
2022/04/21 00:52:46;;;;;;;6.67;4.77;;;;;;;8.66;76.60;99712.25;5059579;28;20204;-56
2022/04/21 00:55:12;;;;;;;5.70;4.77;;;;;;;8.62;77.08;99708.84;5056285;28;20242;-56
2022/04/21 00:57:40;;;;;;;5.47;4.97;;;;;;;8.58;77.25;99698.56;5051898;28;20239;-56
2022/04/21 01:00:06;;;;;;;5.00;4.30;;;;;;;8.52;78.15;99704.66;5058608;28;20544;-57
2022/04/21 01:05:26;;;;;;;4.63;4.23;;;;;;;8.39;79.23;99693.59;5054069;28;20226;-56
2022/04/21 01:07:54;;;;;;;5.50;5.03;;;;;;;8.35;79.59;99700.47;5054834;28;20207;-55
2022/04/21 01:10:19;;;;;;;5.50;4.90;;;;;;;8.30;79.70;99694.53;5062074;28;20583;-56
2022/04/21 01:12:45;;;;;;;6.03;5.03;;;;;;;8.37;79.70;99705.63;5062083;28;20188;-56
2022/04/21 01:15:11;;;;;;;5.60;5.03;;;;;;;8.40;79.37;99710.72;5063162;28;20643;-57
2022/04/21 01:17:38;;;;;;;5.70;5.20;;;;;;;8.38;79.82;99703.03;5056622;28;20207;-55
2022/04/21 01:20:09;;;;;;;7.67;5.40;;;;;;;8.39;80.10;99702.16;5052872;28;20245;-56
2022/04/21 01:22:34;;;;;;;5.97;5.37;;;;;;;8.37;80.31;99692.75;5063145;28;20220;-55
2022/04/21 01:25:00;;;;;;;6.60;6.00;;;;;;;8.40;80.26;99703.00;5058241;28;20213;-56
2022/04/21 01:27:29;;;;;;;5.57;5.17;;;;;;;8.43;80.20;99697.81;5058062;28;20300;-56
2022/04/21 01:29:55;;;;;;;6.07;5.40;;;;;;;8.44;80.44;99698.69;5060068;28;20212;-56
2022/04/21 01:32:20;;;;;;;7.67;5.63;;;;;;;8.45;80.41;99708.97;5061928;28;20189;-55
2022/04/21 01:34:45;;;;;;;5.77;5.17;;;;;;;8.42;80.39;99706.41;5056831;28;20558;-54
2022/04/21 01:42:39;;;;;;;7.20;5.20;;;;;;;8.34;80.70;99700.50;5051441;28;20213;-55
2022/04/21 01:45:05;;;;;;;5.97;5.27;;;;;;;8.34;80.96;99701.34;5055633;28;20194;-56
2022/04/21 01:47:30;;;;;;;5.53;4.93;;;;;;;8.27;82.50;99699.69;5051005;28;20260;-56
2022/04/21 01:49:55;;;;;;;5.57;4.90;;;;;;;8.23;83.10;99698.88;5053683;28;20211;-56
2022/04/21 01:52:21;;;;;;;6.33;5.30;;;;;;;8.11;84.01;99693.81;5060677;28;20562;-56
2022/04/21 01:54:50;;;;;;;5.03;4.57;;;;;;;8.02;84.75;99694.72;5056568;28;20197;-56
2022/04/21 01:57:16;;;;;;;7.33;5.03;;;;;;;7.86;86.00;99706.91;5056203;28;20188;-56
2022/04/21 01:59:41;;;;;;;5.43;5.03;;;;;;;7.68;86.69;99696.72;5053112;28;20207;-56
2022/04/21 02:02:06;;;;;;;4.90;4.50;;;;;;;7.56;87.09;99697.66;5062314;28;20222;-55
2022/04/21 02:04:32;;;;;;;5.23;4.73;;;;;;;7.46;87.35;99705.41;5058818;28;20702;-56
2022/04/21 02:06:57;;;;;;;5.30;4.80;;;;;;;7.41;88.03;99699.44;5052052;28;20293;-56
2022/04/21 02:09:22;;;;;;;4.90;4.50;;;;;;;7.37;88.61;99700.34;5056998;28;20633;-56
2022/04/21 02:11:48;;;;;;;6.60;5.30;;;;;;;7.31;89.09;99698.66;5057688;28;20195;-57
2022/04/21 02:14:14;;;;;;;5.17;4.77;;;;;;;7.29;89.51;99707.22;5058576;28;20686;-56
2022/04/21 02:16:39;;;;;;;6.23;5.27;;;;;;;7.30;89.97;99701.22;5060259;28;20192;-56
2022/04/21 02:19:04;;;;;;;5.83;5.23;;;;;;;7.27;90.11;99690.94;5061916;28;21046;-56
2022/04/21 02:21:30;;;;;;;6.20;5.60;;;;;;;7.20;90.18;99700.41;5054930;28;20211;-57
2022/04/21 02:23:55;;;;;;;5.10;4.70;;;;;;;7.14;90.63;99692.72;5053886;28;20194;-56
2022/04/21 02:26:20;;;;;;;5.80;5.20;;;;;;;7.12;90.67;99695.28;5052235;28;20684;-56
2022/04/21 02:28:45;;;;;;;6.70;6.10;;;;;;;7.13;90.62;99686.72;5059913;28;20190;-54
2022/04/21 02:31:11;;;;;;;6.17;5.63;;;;;;;7.11;90.96;99687.59;5053346;28;20707;-55
2022/04/21 02:33:36;;;;;;;6.63;6.03;;;;;;;7.10;91.18;99691.03;5053085;28;20298;-54
2022/04/21 02:36:01;;;;;;;6.30;5.80;;;;;;;7.04;91.69;99684.19;5053758;28;20191;-56
2022/04/21 02:38:27;;;;;;;6.77;5.90;;;;;;;6.99;91.54;99689.34;5051777;28;20187;-55
2022/04/21 02:40:52;;;;;;;6.53;5.70;;;;;;;7.00;91.69;99683.34;5060729;28;20205;-56
2022/04/21 02:43:17;;;;;;;7.93;6.17;;;;;;;7.11;91.13;99675.56;5058810;28;20202;-55
2022/04/21 02:45:43;;;;;;;7.60;5.50;;;;;;;7.12;91.06;99677.28;5050093;28;20213;-56
2022/04/21 02:48:09;;;;;;;6.33;5.73;;;;;;;7.14;91.20;99677.28;5060384;28;20334;-56
2022/04/21 02:50:35;;;;;;;6.50;5.90;;;;;;;7.15;91.42;99673.84;5062192;28;20236;-56
2022/04/21 02:53:01;;;;;;;5.83;5.33;;;;;;;7.19;91.26;99679.84;5055610;28;20184;-56
2022/04/21 02:58:11;;;;;;;6.53;5.93;;;;;;;7.11;92.03;99678.13;5062082;28;20217;-56
2022/04/21 03:00:37;;;;;;;7.27;6.60;;;;;;;7.09;92.25;99677.31;5058165;28;20213;-56
2022/04/21 03:03:02;;;;;;;7.23;6.53;;;;;;;7.09;92.14;99663.56;5056065;28;20664;-56
2022/04/21 03:05:27;;;;;;;6.93;6.20;;;;;;;7.14;91.77;99670.41;5050368;28;20188;-56
2022/04/21 03:07:54;;;;;;;7.37;6.27;;;;;;;7.15;91.82;99669.53;5054487;28;20206;-56
2022/04/21 03:10:22;;;;;;;7.40;6.50;;;;;;;7.10;91.85;99666.16;5055246;28;20260;-56
2022/04/21 03:12:47;;;;;;;7.43;6.43;;;;;;;7.11;92.18;99665.28;5056906;28;20212;-55
2022/04/21 03:15:13;;;;;;;7.90;6.57;;;;;;;7.10;92.19;99661.03;5052973;28;20266;-55
2022/04/21 03:17:39;;;;;;;7.60;7.00;;;;;;;7.10;92.12;99660.16;5059448;28;20204;-55
2022/04/21 03:20:05;;;;;;;7.93;7.20;;;;;;;7.10;92.17;99673.88;5059237;28;20237;-56
2022/04/21 03:25:15;;;;;;;8.47;7.63;;;;;;;6.99;92.78;99658.47;5057829;28;20206;-55
2022/04/21 03:27:43;;;;;;;7.43;6.73;;;;;;;7.03;92.81;99666.19;5057821;28;20643;-55
2022/04/21 03:30:09;;;;;;;7.57;6.87;;;;;;;7.01;92.63;99659.34;5051337;28;20222;-55
2022/04/21 03:32:35;;;;;;;7.63;6.93;;;;;;;6.95;92.76;99663.66;5053958;28;20274;-55
2022/04/21 03:35:01;;;;;;;7.63;6.83;;;;;;;6.94;92.84;99664.50;5058925;28;20190;-56
2022/04/21 03:37:27;;;;;;;7.50;6.90;;;;;;;6.97;92.85;99664.47;5055903;28;20191;-56
2022/04/21 03:39:52;;;;;;;7.80;7.10;;;;;;;6.98;92.45;99666.19;5053759;28;20213;-55
2022/04/21 03:42:31;;;;;;;7.43;6.70;;;;;;;6.99;92.32;99668.78;5058918;28;20548;-55
2022/04/21 03:44:57;;;;;;;7.93;7.23;;;;;;;6.99;92.47;99668.78;5052820;28;20179;-55
2022/04/21 03:47:23;;;;;;;8.00;6.87;;;;;;;7.00;92.03;99669.63;5051468;28;20212;-55
2022/04/21 03:49:49;;;;;;;7.80;7.00;;;;;;;7.03;92.37;99673.91;5057079;28;20207;-55
2022/04/21 03:52:15;;;;;;;7.77;7.07;;;;;;;6.98;92.63;99672.22;5056528;28;20233;-55
2022/04/21 03:54:41;;;;;;;8.37;7.57;;;;;;;6.85;93.48;99676.53;5060103;28;20191;-56
2022/04/21 03:57:07;;;;;;;7.97;7.17;;;;;;;6.78;94.35;99661.13;5052672;28;20176;-56
2022/04/21 03:59:33;;;;;;;8.20;7.40;;;;;;;6.75;94.71;99663.72;5055085;28;20207;-56
2022/04/21 04:02:07;;;;;;;8.40;7.60;;;;;;;6.67;94.99;99671.44;5057450;28;20189;-55
2022/04/21 04:04:35;;;;;;;8.40;7.70;;;;;;;6.66;94.96;99667.16;5054854;28;20267;-55
2022/04/21 04:12:34;;;;;;;8.90;8.10;;;;;;;6.56;95.56;99669.75;5056446;28;20222;-55
2022/04/21 04:15:00;;;;;;;8.87;7.97;;;;;;;6.51;95.97;99668.06;5049245;28;20262;-54
2022/04/21 04:17:26;;;;;;;10.17;8.90;;;;;;;6.51;95.97;99668.91;5053312;28;20218;-55
2022/04/21 04:19:51;;;;;;;9.27;8.40;;;;;;;6.50;96.30;99671.50;5055761;28;20199;-56
2022/04/21 04:22:17;;;;;;;9.50;8.00;;;;;;;6.50;96.46;99663.78;5064901;28;20491;-54
2022/04/21 04:24:44;;;;;;;9.50;8.60;;;;;;;6.53;96.25;99674.06;5057108;28;20291;-55
2022/04/21 04:27:09;;;;;;;9.90;8.63;;;;;;;6.51;96.70;99670.63;5054792;28;20231;-56
2022/04/21 04:29:34;;;;;;;9.60;8.77;;;;;;;6.45;97.33;99674.09;5050770;28;20269;-55
2022/04/21 04:32:01;;;;;;;9.60;8.70;;;;;;;6.38;97.47;99672.38;5057600;28;20238;-56
2022/04/21 04:34:27;;;;;;;9.83;8.93;;;;;;;6.38;97.63;99677.50;5054344;28;20267;-55
2022/04/21 04:36:52;;;;;;;9.03;8.30;;;;;;;6.37;97.60;99675.78;5056691;28;20266;-55
2022/04/21 04:39:17;;;;;;;9.90;9.00;;;;;;;6.42;97.16;99679.22;5057338;28;20548;-55
2022/04/21 04:44:45;;;;;;;10.73;9.87;;;;;;;6.41;97.43;99672.38;4984822;28;20280;-56
2022/04/21 04:47:10;;;;;;;10.63;9.50;;;;;;;6.45;96.92;99674.09;5047288;28;20215;-55
2022/04/21 04:49:36;;;;;;;10.30;9.40;;;;;;;6.56;96.49;99661.22;5058505;28;20202;-55
2022/04/21 04:52:01;;;;;;;10.50;9.50;;;;;;;6.59;96.55;99668.06;5058475;28;20249;-57
2022/04/21 04:54:29;;;;;;;9.70;8.87;;;;;;;6.62;96.39;99676.59;5063683;28;20222;-55
2022/04/21 04:56:55;;;;;;;11.53;10.43;;;;;;;6.64;96.01;99669.75;5057642;28;20178;-55
2022/04/21 04:59:21;;;;;;;10.37;9.40;;;;;;;6.73;95.72;99662.88;5061042;28;20188;-55
2022/04/21 05:01:46;;;;;;;10.53;9.53;;;;;;;6.78;95.43;99667.16;5054955;28;20684;-55
2022/04/21 05:04:17;;;;;;;10.30;9.37;;;;;;;6.80;95.31;99669.69;5056077;28;20352;-55
2022/04/21 05:06:50;;;;;;;10.07;9.03;;;;;;;6.85;95.31;99662.84;5058454;28;20884;-56
2022/04/21 05:09:19;;;;;;;10.40;9.23;;;;;;;6.86;94.78;99660.25;5056667;28;20256;-56
2022/04/21 05:11:46;;;;;;;9.57;8.77;;;;;;;6.90;94.92;99676.50;5062692;28;20536;-55
2022/04/21 05:14:13;;;;;;;10.20;9.30;;;;;;;7.02;94.06;99662.75;5051513;28;20642;-56
2022/04/21 05:16:39;;;;;;;10.80;9.70;;;;;;;7.17;93.73;99674.72;5051658;28;20184;-56
2022/04/21 05:19:07;;;;;;;10.37;9.27;;;;;;;7.50;92.45;99662.47;5057305;28;20284;-54
2022/04/21 05:21:34;;;;;;;11.00;10.03;;;;;;;7.62;91.81;99667.56;5066803;28;20758;-54
2022/04/21 05:24:00;;;;;;;10.47;9.47;;;;;;;7.59;91.79;99659.88;5060362;28;20210;-56
2022/04/21 05:26:29;;;;;;;11.40;10.50;;;;;;;7.84;91.06;99662.25;5059148;28;20214;-56
2022/04/21 05:28:55;;;;;;;11.07;10.17;;;;;;;8.42;88.74;99664.31;5056996;28;20185;-57
2022/04/21 05:31:22;;;;;;;10.53;9.53;;;;;;;9.03;86.25;99660.22;5058700;28;20211;-57
2022/04/21 05:33:48;;;;;;;13.90;10.37;;;;;;;9.63;84.22;99647.34;5060451;28;20237;-57
2022/04/21 05:36:13;;;;;;;10.10;9.30;;;;;;;10.09;82.17;99650.91;5059020;28;20647;-56
2022/04/21 05:38:39;;;;;;;9.77;8.93;;;;;;;10.29;81.21;99647.97;5061121;28;20692;-57
2022/04/21 05:41:05;;;;;;;10.57;9.43;;;;;;;10.50;80.49;99650.19;5063152;28;20198;-55
2022/04/21 05:43:45;;;;;;;10.27;9.37;;;;;;;10.68;79.71;99650.72;5061830;28;20676;-55
2022/04/21 05:46:13;;;;;;;9.57;8.67;;;;;;;10.87;78.61;99650.38;5062592;28;20237;-56
2022/04/21 05:48:40;;;;;;;10.20;9.27;;;;;;;10.86;78.60;99649.50;5062542;28;20684;-56
2022/04/21 05:51:06;;;;;;;9.57;8.67;;;;;;;11.15;77.87;99652.38;5061961;28;20210;-55
2022/04/21 05:53:36;;;;;;;10.00;9.03;;;;;;;11.58;77.05;99641.88;5063202;28;20272;-56
2022/04/21 05:56:04;;;;;;;9.73;8.27;;;;;;;11.79;76.41;99642.25;5062543;28;20262;-55
2022/04/21 05:58:30;;;;;;;9.20;8.30;;;;;;;12.63;74.79;99640.09;5051243;28;20187;-56
2022/04/21 06:00:57;;;;;;;9.33;8.40;;;;;;;13.06;72.63;99643.22;5054203;28;20248;-56
2022/04/21 06:03:22;;;;;;;8.97;8.17;;;;;;;13.45;72.09;99645.56;5055206;28;20178;-55
2022/04/21 06:05:48;;;;;;;7.60;6.90;;;;;;;13.72;71.83;99633.41;5059671;28;21747;-56
2022/04/21 06:08:13;;;;;;;8.47;7.73;;;;;;;13.93;70.64;99635.34;5062823;28;20193;-56
2022/04/21 06:10:38;;;;;;;8.83;8.07;;;;;;;13.97;70.41;99634.34;5060328;28;20225;-55
2022/04/21 06:13:04;;;;;;;11.57;9.20;;;;;;;13.86;69.75;99640.78;5056161;28;20702;-56
2022/04/21 06:15:33;;;;;;;10.30;9.30;;;;;;;13.00;70.98;99646.03;5060135;28;20194;-56
2022/04/21 06:17:59;;;;;;;9.40;8.60;;;;;;;12.78;72.69;99633.66;5058614;28;20592;-55
2022/04/21 06:20:28;;;;;;;9.77;8.67;;;;;;;12.74;72.43;99645.88;5053716;28;20608;-54
2022/04/21 06:22:54;;;;;;;10.10;9.10;;;;;;;12.32;73.86;99639.22;5060564;28;20671;-56
2022/04/21 06:25:21;;;;;;;10.43;9.40;;;;;;;11.95;74.68;99637.53;5071572;28;20555;-55
2022/04/21 06:27:47;;;;;;;10.30;9.40;;;;;;;11.99;75.61;99633.16;5054505;28;20244;-54
2022/04/21 06:30:12;;;;;;;10.37;9.37;;;;;;;11.92;75.11;99629.84;5063896;28;20230;-55
2022/04/21 06:32:37;;;;;;;10.77;9.87;;;;;;;12.00;75.23;99637.47;5060503;28;20190;-54
2022/04/21 06:35:04;;;;;;;10.47;9.47;;;;;;;11.79;75.80;99649.19;5060205;28;20191;-54
2022/04/21 06:37:29;;;;;;;11.00;10.00;;;;;;;11.80;76.53;99648.31;5060470;28;20174;-56
2022/04/21 06:39:55;;;;;;;11.03;10.10;;;;;;;12.01;75.92;99641.78;5064985;28;20695;-55
2022/04/21 06:50:23;;;;;;;10.57;9.57;;;;;;;12.96;73.46;99645.25;5043204;28;20217;-56
2022/04/21 06:52:49;;;;;;;11.37;10.17;;;;;;;12.92;73.13;99643.66;5035860;28;20609;-56
2022/04/21 06:55:14;;;;;;;10.10;9.30;;;;;;;12.79;73.69;99643.97;5039965;28;20240;-54
2022/04/21 06:57:39;;;;;;;10.67;9.67;;;;;;;12.91;73.87;99632.41;5044265;28;20182;-57
2022/04/21 07:00:05;;;;;;;10.30;9.40;;;;;;;12.88;73.94;99631.66;5050845;28;20249;-54
2022/04/21 07:02:31;;;;;;;11.27;10.27;;;;;;;12.68;74.26;99632.22;5041428;28;20221;-55
2022/04/21 07:05:05;;;;;;;9.97;9.07;;;;;;;13.08;73.41;99636.25;5041486;28;20676;-56
2022/04/21 07:07:30;;;;;;;11.23;9.93;;;;;;;13.48;72.47;99631.63;5041918;28;20313;-55
2022/04/21 07:10:00;;;;;;;10.37;9.47;;;;;;;13.44;72.02;99632.59;5033680;28;20622;-56
2022/04/21 07:12:29;;;;;;;11.07;10.00;;;;;;;13.26;72.81;99637.44;5039359;28;20192;-56
2022/04/21 07:14:59;;;;;;;11.13;10.23;;;;;;;13.06;72.97;99633.72;5034317;28;20207;-55
2022/04/21 07:17:25;;;;;;;11.17;10.27;;;;;;;13.15;73.94;99632.59;5037814;28;20777;-57
2022/04/21 07:19:50;;;;;;;11.33;10.23;;;;;;;13.36;72.83;99625.00;5039934;28;20258;-53
2022/04/21 07:22:19;;;;;;;12.07;10.70;;;;;;;13.51;72.96;99621.13;5040051;28;20189;-54
2022/04/21 07:24:45;;;;;;;12.07;10.90;;;;;;;13.70;71.74;99622.22;5036543;28;20203;-56
2022/04/21 07:27:10;;;;;;;13.13;11.73;;;;;;;13.59;70.47;99623.47;5031236;28;20211;-56
2022/04/21 07:29:35;;;;;;;12.37;11.33;;;;;;;13.81;71.04;99619.25;5032604;28;20206;-56
2022/04/21 07:32:01;;;;;;;11.77;10.67;;;;;;;14.09;70.82;99620.94;5037172;28;20240;-56
2022/04/21 07:34:26;;;;;;;12.87;11.00;;;;;;;14.22;69.90;99623.13;5035944;28;20297;-55
2022/04/21 07:36:51;;;;;;;12.00;11.10;;;;;;;14.10;70.15;99622.63;5004537;28;20194;-56
2022/04/21 07:39:18;;;;;;;11.57;10.67;;;;;;;14.13;69.53;99619.94;5041427;28;20187;-55
2022/04/21 07:41:44;;;;;;;12.00;10.90;;;;;;;13.91;68.69;99617.22;5040384;28;20263;-55
2022/04/21 07:44:10;;;;;;;12.10;11.07;;;;;;;13.63;68.99;99615.53;5038764;28;20189;-56
2022/04/21 07:46:36;;;;;;;11.60;10.60;;;;;;;13.66;70.74;99615.44;5031819;28;20223;-56
2022/04/21 07:51:46;;;;;;;12.70;11.60;;;;;;;13.30;71.62;99610.47;5035530;28;20209;-56
2022/04/21 07:54:11;;;;;;;12.07;11.07;;;;;;;13.18;70.86;99605.66;5035995;28;20453;-56
2022/04/21 07:56:37;;;;;;;11.60;10.70;;;;;;;13.13;72.12;99604.94;5037456;28;20183;-56
2022/04/21 07:59:02;;;;;;;13.27;11.27;;;;;;;13.37;72.59;99603.31;5023490;28;20234;-56
2022/04/21 08:01:28;;;;;;;13.90;11.80;;;;;;;13.24;73.26;99606.31;5043370;28;20936;-54
2022/04/21 08:03:53;;;;;;;11.97;10.97;;;;;;;12.95;74.18;99597.66;5040781;28;20276;-54
2022/04/21 08:06:19;;;;;;;13.37;12.23;;;;;;;12.88;73.67;99603.09;5040638;28;20207;-54
2022/04/21 08:08:44;;;;;;;12.23;11.13;;;;;;;12.92;74.05;99607.28;5036178;28;20271;-54
2022/04/21 08:11:09;;;;;;;12.80;11.60;;;;;;;12.85;74.25;99609.22;5040995;28;20573;-54
2022/04/21 08:13:35;;;;;;;13.40;11.97;;;;;;;12.74;74.57;99617.31;5044667;28;20209;-55
2022/04/21 08:16:00;;;;;;;13.00;11.70;;;;;;;12.64;74.76;99608.06;5039428;28;20226;-55
2022/04/21 08:18:26;;;;;;;13.37;11.87;;;;;;;12.72;75.02;99619.09;5043934;28;20194;-55
2022/04/21 08:20:53;;;;;;;12.67;11.43;;;;;;;12.76;74.64;99606.88;5033270;28;20223;-55
2022/04/21 08:23:19;;;;;;;13.10;11.80;;;;;;;12.82;74.11;99611.91;5027911;28;20608;-54
2022/04/21 08:33:57;;;;;;;12.80;11.70;;;;;;;12.66;74.23;99627.06;5042666;28;20577;-53
2022/04/21 08:36:22;;;;;;;12.70;11.50;;;;;;;12.77;73.78;99605.97;5042068;28;20421;-54
2022/04/21 08:38:47;;;;;;;13.27;11.87;;;;;;;12.70;73.67;99631.28;5044449;28;20188;-54
2022/04/21 08:41:18;;;;;;;12.73;11.67;;;;;;;12.58;73.97;99621.25;5045395;28;20187;-55
2022/04/21 08:43:46;;;;;;;13.13;11.83;;;;;;;12.52;73.75;99629.19;5026290;28;20187;-55
2022/04/21 08:46:18;;;;;;;12.43;11.43;;;;;;;12.48;73.69;99628.44;5048747;28;20212;-53
2022/04/21 08:48:47;;;;;;;11.00;9.90;;;;;;;12.65;73.16;99612.38;5037791;28;20214;-54
2022/04/21 08:51:13;;;;;;;13.20;11.10;;;;;;;12.72;72.65;99621.69;5038502;28;20187;-55
2022/04/21 08:53:40;;;;;;;12.00;11.00;;;;;;;12.74;71.94;99619.03;5042824;28;20192;-54
2022/04/21 08:56:06;;;;;;;11.83;10.80;;;;;;;12.76;71.70;99609.47;5036441;28;20621;-54
2022/04/21 08:58:31;;;;;;;11.43;10.43;;;;;;;12.86;71.00;99610.91;5035584;28;20282;-54
2022/04/21 09:00:57;;;;;;;11.73;10.47;;;;;;;13.00;70.71;99614.84;5041001;28;20703;-55
2022/04/21 09:03:23;;;;;;;11.73;9.93;;;;;;;13.00;69.39;99610.50;5037547;28;20561;-55
2022/04/21 09:05:49;;;;;;;11.10;9.83;;;;;;;13.09;68.89;99605.00;5041575;28;20216;-55
2022/04/21 09:08:22;;;;;;;11.63;10.00;;;;;;;13.28;69.16;99604.47;5041250;28;20335;-55
2022/04/21 09:11:11;;;;;;;10.23;9.33;;;;;;;13.44;69.04;99602.28;5040113;28;20194;-54
2022/04/21 09:13:39;;;;;;;10.80;8.93;;;;;;;13.39;67.67;99607.56;5040688;28;20211;-54
2022/04/21 09:16:10;;;;;;;9.90;9.00;;;;;;;13.46;67.04;99599.63;5041499;28;20272;-54
2022/04/21 09:18:40;;;;;;;10.97;9.50;;;;;;;13.47;65.72;99629.91;5038440;28;20187;-54
2022/04/21 09:21:16;;;;;;;9.33;8.43;;;;;;;13.46;63.82;99602.22;5043445;28;20194;-54
2022/04/21 09:23:47;;;;;;;8.77;7.97;;;;;;;13.53;64.68;99608.94;5045605;28;20191;-55
2022/04/21 09:26:21;;;;;;;10.53;9.63;;;;;;;13.56;64.61;99596.69;5039409;28;20242;-54
2022/04/21 09:28:57;;;;;;;10.57;9.37;;;;;;;13.68;64.99;99598.03;5039954;28;20213;-54
2022/04/21 09:31:24;;;;;;;11.10;9.93;;;;;;;13.64;65.43;99600.75;5040488;28;20656;-55
2022/04/21 09:33:51;;;;;;;11.03;9.60;;;;;;;13.83;65.89;99603.63;5039494;28;20186;-53
2022/04/21 09:36:17;;;;;;;10.47;9.50;;;;;;;13.93;67.89;99601.53;5043413;28;20283;-54
2022/04/21 09:38:42;;;;;;;9.80;8.90;;;;;;;13.98;65.70;99597.91;5038501;28;20197;-54
2022/04/21 09:41:09;;;;;;;12.47;9.67;;;;;;;13.96;65.19;99591.91;5045424;28;20235;-56
2022/04/21 09:43:37;;;;;;;10.63;8.40;;;;;;;14.04;64.96;99591.66;5037287;28;20191;-57
2022/04/21 09:46:14;;;;;;;9.53;8.67;;;;;;;14.13;66.83;99585.28;5043452;28;20246;-54
2022/04/21 09:48:40;;;;;;;8.43;7.73;;;;;;;14.36;65.83;99583.59;5040595;28;20269;-53
2022/04/21 09:51:16;;;;;;;8.50;7.80;;;;;;;14.48;65.71;99588.34;5045591;28;20193;-56
2022/04/21 09:53:58;;;;;;;10.17;9.20;;;;;;;14.42;65.35;99586.81;5039150;28;20422;-54
2022/04/21 09:56:39;;;;;;;11.07;10.10;;;;;;;14.45;65.49;99576.31;5040439;28;20206;-55
2022/04/21 09:59:10;;;;;;;10.63;9.63;;;;;;;14.39;65.96;99583.50;5040195;28;20183;-55
2022/04/21 10:01:38;;;;;;;10.87;9.97;;;;;;;14.32;66.68;99578.50;5042608;28;20185;-54
2022/04/21 10:04:17;;;;;;;13.97;10.00;;;;;;;14.35;66.80;99563.66;5033366;28;20198;-55
2022/04/21 10:06:44;;;;;;;10.43;9.63;;;;;;;14.58;66.76;99552.41;5042613;28;20233;-55
2022/04/21 10:09:11;;;;;;;9.53;8.73;;;;;;;14.91;66.38;99549.47;5042501;28;20187;-56
2022/04/21 10:11:42;;;;;;;10.20;9.20;;;;;;;14.94;66.05;99541.53;5041758;28;20182;-56
2022/04/21 10:14:12;;;;;;;9.10;8.40;;;;;;;15.04;65.48;99542.03;5038985;28;20274;-57
2022/04/21 10:16:38;;;;;;;8.70;7.93;;;;;;;15.18;66.04;99533.66;5038637;28;20712;-56
2022/04/21 10:19:04;;;;;;;10.73;9.63;;;;;;;14.97;66.06;99536.22;5029069;28;20175;-56
2022/04/21 10:21:34;;;;;;;11.23;10.23;;;;;;;15.15;66.23;99536.38;5045556;28;20190;-55
2022/04/21 10:24:00;;;;;;;9.27;8.47;;;;;;;15.35;65.95;99526.00;5041942;28;20780;-55
2022/04/21 10:26:43;;;;;;;9.57;8.77;;;;;;;15.56;66.74;99515.59;5040093;28;20765;-54
2022/04/21 10:29:14;;;;;;;10.50;9.60;;;;;;;15.47;65.63;99513.34;5029653;28;20198;-56
2022/04/21 10:31:47;;;;;;;10.53;9.63;;;;;;;15.53;65.31;99502.69;5039439;28;20212;-54
2022/04/21 10:34:40;;;;;;;10.07;9.27;;;;;;;15.43;65.83;99504.00;5039240;28;20339;-55
2022/04/21 10:37:07;;;;;;;10.90;9.87;;;;;;;15.32;65.51;99507.03;5043636;28;20191;-55
2022/04/21 10:39:32;;;;;;;9.60;8.60;;;;;;;15.29;66.21;99509.75;5041765;28;20185;-55
2022/04/21 10:42:16;;;;;;;11.30;9.53;;;;;;;15.40;65.80;99494.50;5043183;28;20206;-54
2022/04/21 10:44:47;;;;;;;10.50;9.60;;;;;;;15.57;65.31;99493.81;5040440;28;20226;-55
2022/04/21 10:47:31;;;;;;;9.13;8.30;;;;;;;15.68;65.72;99494.22;5036575;28;20274;-54
2022/04/21 10:49:58;;;;;;;7.80;7.10;;;;;;;15.72;66.10;99481.03;5044556;28;20229;-54
2022/04/21 10:57:49;;;;;;;8.53;7.83;;;;;;;16.07;64.83;99473.44;5045625;28;20200;-55
2022/04/21 11:00:27;;;;;;;8.37;7.60;;;;;;;15.92;64.71;99488.03;5047028;28;20186;-55
2022/04/21 11:03:03;;;;;;;7.73;6.97;;;;;;;15.77;66.12;99481.66;5024224;28;20192;-55
2022/04/21 11:05:31;;;;;;;7.77;6.97;;;;;;;15.85;65.65;99477.84;5036644;28;20218;-55
2022/04/21 11:07:59;;;;;;;8.30;6.90;;;;;;;15.74;65.54;99472.22;5043858;28;20202;-55
2022/04/21 11:10:39;;;;;;;6.00;5.43;;;;;;;15.96;65.86;99458.25;5037919;28;20203;-55
2022/04/21 11:13:05;;;;;;;7.43;6.73;;;;;;;16.05;65.89;99460.47;5042991;28;20178;-54
2022/04/21 11:15:50;;;;;;;8.33;7.63;;;;;;;16.14;66.72;99467.88;5049090;28;20247;-55
2022/04/21 11:18:19;;;;;;;7.57;6.87;;;;;;;16.29;64.79;99461.13;5039013;28;20186;-54
2022/04/21 11:20:49;;;;;;;8.00;7.10;;;;;;;16.42;63.90;99457.94;5043178;28;20175;-53
2022/04/21 11:23:44;;;;;;;7.53;6.83;;;;;;;16.37;64.69;99446.84;5039845;28;20191;-54
2022/04/21 11:26:11;;;;;;;6.80;6.20;;;;;;;16.36;64.84;99448.63;5040592;28;20290;-55
2022/04/21 11:28:42;;;;;;;7.50;6.93;;;;;;;16.32;64.64;99452.28;5040717;28;20183;-55
2022/04/21 11:31:07;;;;;;;6.60;6.07;;;;;;;16.49;63.92;99442.81;5039812;28;20661;-55
2022/04/21 11:33:33;;;;;;;6.47;5.93;;;;;;;16.66;64.73;99442.00;5040094;28;20179;-54
2022/04/21 11:36:09;;;;;;;6.80;6.30;;;;;;;16.84;65.35;99438.50;5038375;28;20222;-55
2022/04/21 11:38:35;;;;;;;7.90;7.20;;;;;;;16.52;64.37;99425.22;5036798;28;20658;-55
2022/04/21 11:41:02;;;;;;;8.70;6.97;;;;;;;16.37;65.54;99445.09;5041953;28;20182;-55
2022/04/21 11:43:28;;;;;;;8.97;6.93;;;;;;;16.45;65.19;99418.63;5038436;28;20183;-54
2022/04/21 11:46:14;;;;;;;8.43;6.57;;;;;;;16.40;64.76;99437.13;5038726;28;20601;-55
2022/04/21 11:48:41;;;;;;;7.47;6.30;;;;;;;16.40;65.75;99421.44;5039138;28;20205;-54
2022/04/21 11:51:08;;;;;;;6.83;6.23;;;;;;;16.38;65.43;99415.47;5037336;28;20672;-55
2022/04/21 11:53:36;;;;;;;6.73;6.03;;;;;;;16.57;65.02;99411.94;5023867;28;20201;-54
2022/04/21 11:56:05;;;;;;;7.07;6.43;;;;;;;16.51;64.94;99414.88;5040538;28;20293;-55
2022/04/21 11:58:34;;;;;;;6.70;6.10;;;;;;;16.55;65.40;99409.41;5046177;28;20186;-54
2022/04/21 12:06:57;;;;;;;7.27;6.70;;;;;;;17.10;64.31;99391.13;5039932;28;20218;-54
2022/04/21 12:09:25;;;;;;;7.43;6.73;;;;;;;16.84;64.35;99407.16;5042652;28;20214;-54
2022/04/21 12:12:01;;;;;;;6.67;6.07;;;;;;;16.82;64.68;99401.16;5034575;28;20189;-54
2022/04/21 12:14:27;;;;;;;6.40;5.80;;;;;;;16.97;64.58;99409.19;5034960;28;20227;-54
2022/04/21 12:17:03;;;;;;;7.20;6.47;;;;;;;17.07;64.11;99402.59;5037376;28;20193;-55
2022/04/21 12:19:32;;;;;;;7.97;7.20;;;;;;;17.09;63.22;99405.13;5036950;28;20194;-55
2022/04/21 12:22:10;;;;;;;6.10;5.50;;;;;;;17.29;62.99;99391.03;5036482;28;20571;-55
2022/04/21 12:24:45;;;;;;;6.60;6.10;;;;;;;17.51;63.04;99390.78;5035515;28;20291;-54
2022/04/21 12:27:15;;;;;;;10.07;5.53;;;;;;;17.20;63.91;99397.56;5038155;28;20264;-54
2022/04/21 12:29:56;;;;;;;6.87;6.17;;;;;;;17.18;63.07;99386.34;5044752;28;20201;-54